Arvin, California
Current Conditions -  °F | °C
As of 3:54 AM on Tuesday 21 Oct 2014 (Local Time) from KBFL Reporting Station
Overcast Overcast  
Wind Chill: 62°   Ceiling: 4500
Heat Index: 62°   Visibility: 10mi
Dew Point: 48°   Wind: 9mph
Humidity: 60%   Direction: 290°WNW
Pressure: 30.03"   Gusts: NA
Location:  35.21°N, 118.82°W
Report Text: KBFL 211054Z AUTO 29008KT 10SM OVC045 17/09 A3003 RMK AO2 SLP165 T01670089
Loading
Personal Weather Stations






























Interactive Weather Map
Tropical Storm Tracking
New forecast layout! Learn more

10-Day Weather Forecast

Advertisements
Track Severe Weather on mobile